Nearby METAR Reports



KADS - Dallas/Addison, Texas, USA
Distance from station: SSW 10mi, 16km
Updated: Fri, 17-Jan-2020 5:47pm CST
Rain, Overcast
Rain, Overcast
 Wind from W
Wind: W 5 mph , 7 km/h
Temperature: 55°F , 13°C
Dew Point: 54°F , 12°C
Humidity: 94%
Barometer: 30.06 inHg , 1017.9 hPa
Summary: Rain
Clouds: Overcast
Visibility: 2 miles , 3 km
Cloud details: Overcast 300 ft
2020/01/17 23:47 KADS 172347Z 28004KT 2SM RA OVC003 13/12 A3006
KTKI - Mckinney, Texas, USA
Distance from station: ENE 11mi, 18km
Updated: Fri, 17-Jan-2020 5:53pm CST
Light rain, Mist, Overcast
Light rain, Mist, Overcast
 Wind from S
Wind: S 12 mph , 19 km/h
Temperature: 57°F , 14°C
Dew Point: 57°F , 14°C
Humidity: 100%
Barometer: 30.06 inHg , 1017.9 hPa
Summary: Light rain, Mist
Clouds: Overcast
Visibility: 3 miles , 5 km
Cloud details: Overcast 200 ft
2020/01/17 23:53 KTKI 172353Z 17010KT 3SM -RA BR OVC002 14/14 A3006 RMK AO2 RAE18B30 SLP186 P0002 60005 T01390139 10139 20106 58010
 
KDAL - Dallas/Love Fld, Texas, USA
Distance from station: SSW 18mi, 30km
Updated: Fri, 17-Jan-2020 6:09pm CST
Mist, Overcast
Mist, Overcast
 Wind from S
Wind: S 9 mph , 15 km/h
Temperature: 61°F , 16°C
Dew Point: 57°F , 14°C
Humidity: 88%
Barometer: 30.06 inHg , 1017.9 hPa
Summary: Mist
Clouds: Overcast
Visibility: 3 miles , 5 km
Cloud details: Overcast 300 ft
2020/01/18 00:09 KDAL 180009Z 18008KT 3SM BR OVC003 16/14 A3006 RMK AO2 RAE07 P0001 T01560144
KDFW - Dallas/Ft Worth, Texas, USA
Distance from station: SW 21mi, 34km
Updated: Fri, 17-Jan-2020 5:53pm CST
Rain, Mist, Overcast
Rain, Mist, Overcast
 Wind from SSW
Wind: SSW 6 mph , 9 km/h
Temperature: 52°F , 11°C
Dew Point: 52°F , 11°C
Humidity: 100%
Barometer: 30.04 inHg , 1017.3 hPa
Summary: Rain, Mist
Clouds: Overcast
Visibility: 2 1/2 miles , 4 km
Cloud details: Overcast 600 ft
2020/01/17 23:53 KDFW 172353Z 20005KT 2 1/2SM RA BR OVC006 11/11 A3004 RMK AO2 SFC VIS 3 SLP170 P0007 60009 T01110106 10111 20089 58007 $
 
KF46 - Rockwall, Texas, USA
Distance from station: ESE 22mi, 35km
Updated: Fri, 17-Jan-2020 6:35pm CST
Mist, Overcast
Mist, Overcast
 Wind from S
Wind: S 14 mph , 22 km/h, Gust: 21 mph , 33 km/h
Temperature: 59°F , 15°C
Dew Point: 59°F , 15°C
Humidity: 100%
Barometer: 30.06 inHg , 1017.9 hPa
Summary: Mist
Clouds: Overcast
Visibility: 5 miles , 8 km
Cloud details: Overcast 300 ft
2020/01/18 00:35 KF46 180035Z AUTO 19012G18KT 5SM BR OVC003 15/15 A3006 RMK AO2 T01460146
KDTO - Denton, Texas, USA
Distance from station: WNW 27mi, 43km
Updated: Fri, 17-Jan-2020 6:32pm CST
Light rain, Overcast
Light rain, Overcast
 Wind from WNW
Wind: WNW 3 mph , 6 km/h
Temperature: 48°F , 9°C
Dew Point: 48°F , 9°C
Humidity: 100%
Barometer: 30.07 inHg , 1018.3 hPa
Summary: Light rain
Clouds: Overcast
Visibility: 10 miles , 16 km
Cloud details: Overcast 900 ft
2020/01/18 00:32 KDTO 180032Z 29003KT 10SM -RA OVC009 09/09 A3007 RMK AO2 RAB14 CIG 007V013 P0001 T00940089
 
KHQZ - Mesquite, Texas, USA
Distance from station: SSE 28mi, 44km
Updated: Fri, 17-Jan-2020 5:50pm CST
Mist, Overcast
Mist, Overcast
 Wind from SSE
Wind: SSE 10 mph , 17 km/h
Temperature: 57°F , 14°C
Dew Point: 57°F , 14°C
Humidity: 100%
Barometer: 30.09 inHg , 1019 hPa
Summary: Mist
Clouds: Overcast
Visibility: 4 miles , 6 km
Cloud details: Overcast 300 ft
2020/01/17 23:50 KHQZ 172350Z 15009KT 4SM BR OVC003 14/14 A3009
KRBD - Dallas/Redbird, Texas, USA
Distance from station: SSW 30mi, 48km
Updated: Fri, 17-Jan-2020 5:53pm CST
Mist, Overcast
Mist, Overcast
 Wind from S
Wind: S 13 mph , 20 km/h, Gust: 23 mph , 37 km/h
Temperature: 61°F , 16°C
Dew Point: 57°F , 14°C
Humidity: 88%
Barometer: 30.06 inHg , 1017.9 hPa
Summary: Mist
Clouds: Overcast
Visibility: 4 miles , 6 km
Cloud details: Overcast 200 ft
2020/01/17 23:53 KRBD 172353Z 17011G20KT 4SM BR OVC002 16/14 A3006 RMK AO2 RAB07E26 SLP175 P0000 60002 T01610144 10161 20128 56009
 
KGPM - Grand Prairie, Texas, USA
Distance from station: SSW 33mi, 53km
Updated: Fri, 17-Jan-2020 6:35pm CST
Overcast
Overcast
 Wind from S
Wind: S 8 mph , 13 km/h, Gust: 16 mph , 26 km/h
Temperature: 61°F , 16°C
Dew Point: 61°F , 16°C
Humidity: 100%
Barometer: 30.06 inHg , 1017.9 hPa
Clouds: Overcast
Visibility: 3 miles , 5 km
Cloud details: Overcast 600 ft
2020/01/18 00:35 KGPM 180035Z AUTO 17007G14KT 3SM OVC006 16/16 A3006 RMK AO2 P0003 T01600160
KAFW - Ft Worth/Allianc, Texas, USA
Distance from station: WSW 34mi, 55km
Updated: Fri, 17-Jan-2020 6:21pm CST
Light rain, Overcast
Light rain, Overcast
 Wind from calm
Wind: Calm
Temperature: 52°F , 11°C
Dew Point: 48°F , 9°C
Humidity: 88%
Barometer: 30.05 inHg , 1017.6 hPa
Summary: Light rain
Clouds: Overcast
Visibility: 10 miles , 16 km
Cloud details: Mostly cloudy 500 ft
Overcast 1000 ft
2020/01/18 00:21 KAFW 180021Z 00000KT 10SM -RA BKN005 OVC010 11/09 A3005 RMK AO2 RAB2359 P0000 T01060089
 
KLNC - Lancaster, Texas, USA
Distance from station: S 36mi, 58km
Updated: Fri, 17-Jan-2020 6:35pm CST
Mist, Overcast
Mist, Overcast
 Wind from SSE
Wind: SSE 13 mph , 20 km/h
Temperature: 61°F , 16°C
Dew Point: 59°F , 15°C
Humidity: 94%
Barometer: 30.08 inHg , 1018.6 hPa
Summary: Mist
Clouds: Overcast
Visibility: 4 miles , 6 km
Cloud details: Overcast 300 ft
2020/01/18 00:35 KLNC 180035Z AUTO 16011KT 4SM BR OVC003 16/15 A3008 RMK AO2 T01560152
KGKY - Arlington, Texas, USA
Distance from station: SSW 36mi, 59km
Updated: Fri, 17-Jan-2020 6:19pm CST
Light rain, Mist, Overcast
Light rain, Mist, Overcast
 Wind from SSE
Wind: SSE 12 mph , 19 km/h, Gust: 23 mph , 37 km/h
Temperature: 61°F , 16°C
Dew Point: 59°F , 15°C
Humidity: 94%
Barometer: 30.04 inHg , 1017.3 hPa
Summary: Light rain, Mist
Clouds: Overcast
Visibility: 1 1/2 miles , 2.4 km
Cloud details: Overcast 500 ft
2020/01/18 00:19 KGKY 180019Z 16010G20KT 1 1/2SM -RA BR OVC005 16/15 A3004 RMK AO2 SFC VIS 6 P0003 T01610150
 
KTRL - Terrell, Texas, USA
Distance from station: SE 39mi, 63km
Updated: Fri, 17-Jan-2020 6:35pm CST
Overcast
Overcast
 Wind from SSE
Wind: SSE 14 mph , 22 km/h
Temperature: 61°F , 16°C
Dew Point: 57°F , 14°C
Humidity: 88%
Barometer: 30.08 inHg , 1018.6 hPa
Clouds: Overcast
Visibility: 7 miles , 11 km
Cloud details: Mostly cloudy 800 ft
Overcast 9000 ft
2020/01/18 00:35 KTRL 180035Z AUTO 15012KT 7SM BKN008 OVC090 16/14 A3008 RMK AO2 RAB00E14 CIG 007V013 P0000 T01610144
KGVT - Greenville/Major, Texas, USA
Distance from station: E 40mi, 64km
Updated: Fri, 17-Jan-2020 6:10pm CST
Haze, Overcast
Haze, Overcast
 Wind from SE
Wind: SE 12 mph , 19 km/h
Temperature: 59°F , 15°C
Barometer: 30.09 inHg , 1019 hPa
Summary: Haze
Clouds: Overcast
Visibility: 5 miles , 8 km
Cloud details: Overcast 300 ft
2020/01/18 00:10 KGVT 180010Z AUTO 14010KT 5SM HZ OVC003 15/ A3009 RMK AO2
 
KFTW - Fort Worth, Texas, USA
Distance from station: WSW 40mi, 65km
Updated: Fri, 17-Jan-2020 6:02pm CST
Light rain, Overcast
Light rain, Overcast
 Wind from S
Wind: S 5 mph , 7 km/h
Temperature: 48°F , 9°C
Wind Chill: 46°F , 8°C
Dew Point: 48°F , 9°C
Humidity: 100%
Barometer: 30.05 inHg , 1017.6 hPa
Summary: Light rain
Clouds: Overcast
Visibility: 7 miles , 11 km
Cloud details: Few Clouds 300 ft
Overcast 800 ft
2020/01/18 00:02 KFTW 180002Z 19004KT 7SM -RA FEW003 OVC008 09/09 A3005 RMK AO2 CIG 007V011 P0000 T00940094
KGYI - Sherman/Denison, Texas, USA
Distance from station: N 43mi, 69km
Updated: Fri, 17-Jan-2020 5:50pm CST
Mist, Overcast
Mist, Overcast
 Wind from SE
Wind: SE 12 mph , 19 km/h
Temperature: 54°F , 12°C
Dew Point: 52°F , 11°C
Humidity: 94%
Barometer: 30.07 inHg , 1018.3 hPa
Summary: Mist
Clouds: Overcast
Visibility: 2 miles , 3 km
Cloud details: Overcast 400 ft
2020/01/17 23:50 KGYI 172350Z 14010KT 2SM BR OVC004 12/11 A3007
 
KNFW - Fort Worth Nas, Texas, USA
Distance from station: WSW 45mi, 73km
Updated: Fri, 17-Jan-2020 5:52pm CST
Light rain, Mist, Overcast
Light rain, Mist, Overcast
 Wind from S
Wind: S 7 mph , 11 km/h
Temperature: 52°F , 11°C
Dew Point: 50°F , 10°C
Humidity: 94%
Barometer: 30.06 inHg , 1017.9 hPa
Summary: Light rain, Mist
Clouds: Overcast
Visibility: 3 miles , 5 km
Cloud details: Mostly cloudy 500 ft
Overcast 1100 ft
2020/01/17 23:52 KNFW 172352Z 19006KT 3SM -RA BR BKN005 OVC011 11/10 A3006 RMK AO2 RAE29B47 SLP162 P0001 60003 T01060100 10189 20083 58010 VISNO N $
KGLE - Gainesville, Texas, USA
Distance from station: NW 46mi, 74km
Updated: Fri, 17-Jan-2020 6:35pm CST
Overcast
Overcast
 Wind from SSW
Wind: SSW 8 mph , 13 km/h
Temperature: 48°F , 9°C
Wind Chill: 44°F , 7°C
Dew Point: 48°F , 9°C
Humidity: 100%
Barometer: 30.07 inHg , 1018.3 hPa
Clouds: Overcast
Visibility: 10 miles , 16 km
Cloud details: Overcast 500 ft
2020/01/18 00:35 KGLE 180035Z AUTO 21007KT 10SM OVC005 09/09 A3007 RMK AO2 P0002 T00920091 PWINO
 
KJWY - Midlothian/Wax, Texas, USA
Distance from station: SSW 46mi, 74km
Updated: Fri, 17-Jan-2020 6:35pm CST
Drizzle, Overcast
Drizzle, Overcast
 Wind from S
Wind: S 8 mph , 13 km/h, Gust: 17 mph , 28 km/h
Temperature: 61°F , 16°C
Dew Point: 61°F , 16°C
Humidity: 100%
Barometer: 30.08 inHg , 1018.6 hPa
Summary: Drizzle
Clouds: Overcast
Visibility: 3 miles , 5 km
Cloud details: Overcast 200 ft
2020/01/18 00:35 KJWY 180035Z AUTO 17007G15KT 3SM DZ OVC002 16/16 A3008 RMK AO2 T01590159
KFWS - Fort Worth/88d, Texas, USA
Distance from station: SW 49mi, 79km
Updated: Fri, 17-Jan-2020 5:49pm CST
Light rain, Overcast
Light rain, Overcast
 Wind from S
Wind: S 6 mph , 9 km/h
Temperature: 55°F , 13°C
Dew Point: 55°F , 13°C
Humidity: 100%
Barometer: 30.08 inHg , 1018.6 hPa
Summary: Light rain
Clouds: Overcast
Visibility: 2 miles , 3 km
Cloud details: Overcast 300 ft
2020/01/17 23:49 KFWS 172349Z 19005KT 2SM -RA OVC003 13/13 A3008